Time;durP1;ratioP1;P1;durP2;ratioP2;P2;SDS_P1;SDS_P2;PMS_P1;PMS_P2;Temp;Humidity;BMP_temperature;BMP_pressure;BME280_temperature;BME280_humidity;BME280_pressure;Samples;Min_cycle;Max_cycle;Signal;HPM_P1;HPM_P2
2023/12/23 00:01:25;;;;;;;13.03;2.43;;;;;;;-145.18;100.00;46640.88;5050736;28;20029;-80
2023/12/23 00:03:50;;;;;;;5.63;0.87;;;;;;;-145.18;100.00;46638.91;5052509;28;20452;-80
2023/12/23 00:06:15;;;;;;;9.10;1.53;;;;;;;-145.18;100.00;46642.81;5048787;28;20039;-80
2023/12/23 00:08:41;;;;;;;5.67;1.20;;;;;;;-145.18;100.00;46642.81;5065280;28;20040;-80
2023/12/23 00:11:06;;;;;;;9.10;1.80;;;;;;;-145.18;100.00;46646.72;5052031;28;20095;-80
2023/12/23 00:13:32;;;;;;;10.60;0.90;;;;;;;-145.18;100.00;46642.81;5043098;28;20051;-80
2023/12/23 00:15:57;;;;;;;11.67;1.53;;;;;;;-145.18;100.00;46638.91;5046265;28;20025;-79
2023/12/23 00:18:23;;;;;;;5.10;1.13;;;;;;;-145.18;100.00;46638.91;5037606;28;20132;-80
2023/12/23 00:20:48;;;;;;;7.40;1.30;;;;;;;-145.18;100.00;46636.94;5035058;28;20095;-79
2023/12/23 00:23:13;;;;;;;9.17;1.70;;;;;;;-145.18;100.00;46644.78;5045986;28;20068;-80
2023/12/23 00:25:39;;;;;;;13.57;1.97;;;;;;;-145.18;100.00;46638.91;5049993;28;20032;-79
2023/12/23 00:28:06;;;;;;;11.03;2.03;;;;;;;-145.18;100.00;46640.88;5052831;28;20118;-78
2023/12/23 00:30:32;;;;;;;12.03;2.70;;;;;;;-145.18;100.00;46636.94;5050804;28;20029;-78
2023/12/23 00:32:57;;;;;;;15.40;1.83;;;;;;;-145.18;100.00;46635.00;5052380;28;20264;-79
2023/12/23 00:35:22;;;;;;;8.20;2.07;;;;;;;-145.18;100.00;46636.94;5049154;28;20041;-89
2023/12/23 00:37:48;;;;;;;11.30;1.40;;;;;;;-145.18;100.00;46640.88;5052261;28;20048;-84
2023/12/23 00:40:14;;;;;;;11.07;2.07;;;;;;;-145.18;100.00;46636.94;5051514;28;20021;-84
2023/12/23 00:42:39;;;;;;;8.10;1.90;;;;;;;-145.18;100.00;46638.91;5053271;28;20477;-84
2023/12/23 00:45:05;;;;;;;8.77;1.37;;;;;;;-145.18;100.00;46636.94;5052554;28;20043;-85
2023/12/23 00:47:31;;;;;;;12.77;1.80;;;;;;;-145.18;100.00;46636.94;5049095;28;20041;-80
2023/12/23 00:49:56;;;;;;;13.83;2.13;;;;;;;-145.18;100.00;46638.91;5049946;28;20265;-79
2023/12/23 00:52:22;;;;;;;18.57;2.10;;;;;;;-145.18;100.00;46640.88;5052369;28;20043;-80
2023/12/23 00:54:48;;;;;;;11.27;2.93;;;;;;;-145.18;100.00;46638.91;5048331;28;20489;-80
2023/12/23 00:57:13;;;;;;;17.87;3.27;;;;;;;-145.18;100.00;46644.78;5049331;28;20396;-79
2023/12/23 00:59:39;;;;;;;19.87;3.63;;;;;;;-145.18;100.00;46646.72;5045935;28;20441;-79
2023/12/23 01:02:04;;;;;;;10.97;2.07;;;;;;;-145.18;100.00;46648.69;5048813;28;20032;-80
2023/12/23 01:04:30;;;;;;;21.27;2.40;;;;;;;-145.18;100.00;46644.78;5048417;28;20448;-80
2023/12/23 01:06:55;;;;;;;15.90;2.37;;;;;;;-145.18;100.00;46646.72;5051355;28;20098;-80
2023/12/23 01:09:21;;;;;;;20.90;3.40;;;;;;;-145.18;100.00;46652.59;5049970;28;20037;-80
2023/12/23 01:11:46;;;;;;;20.90;2.13;;;;;;;-145.18;100.00;46652.59;5047721;28;20357;-80
2023/12/23 01:14:11;;;;;;;14.40;2.30;;;;;;;-145.18;100.00;46656.50;5043510;28;20029;-80
2023/12/23 01:16:37;;;;;;;11.07;1.77;;;;;;;-145.18;100.00;46650.63;5047418;28;20389;-80
2023/12/23 01:19:03;;;;;;;13.93;1.53;;;;;;;-145.18;100.00;46658.44;5047259;28;20029;-80
2023/12/23 01:21:28;;;;;;;8.80;2.20;;;;;;;-145.18;100.00;46664.31;5036743;28;20030;-80
2023/12/23 01:23:54;;;;;;;10.30;2.30;;;;;;;-145.18;100.00;46662.34;5036616;28;20033;-80
2023/12/23 01:26:19;;;;;;;27.83;3.10;;;;;;;-145.18;100.00;46660.41;5051996;28;20025;-80
2023/12/23 01:28:44;;;;;;;12.80;1.90;;;;;;;-145.18;100.00;46662.34;5050077;28;20106;-80
2023/12/23 01:31:10;;;;;;;8.53;1.57;;;;;;;-145.18;100.00;46660.41;5051883;28;20513;-80
2023/12/23 01:33:36;;;;;;;6.33;1.53;;;;;;;-145.18;100.00;46658.44;5049891;28;20413;-79
2023/12/23 01:36:05;;;;;;;9.77;1.90;;;;;;;-145.18;100.00;46660.41;5049516;28;20112;-80
2023/12/23 01:38:31;;;;;;;10.63;2.33;;;;;;;-145.18;100.00;46656.50;5037185;28;20426;-80
2023/12/23 01:40:56;;;;;;;12.80;1.90;;;;;;;-145.18;100.00;46656.50;5043007;28;20341;-80
2023/12/23 01:43:21;;;;;;;13.00;2.20;;;;;;;-145.18;100.00;46648.69;5051797;28;20064;-80
2023/12/23 01:45:47;;;;;;;20.87;2.47;;;;;;;-145.18;100.00;46650.63;5044007;28;20436;-81
2023/12/23 01:48:13;;;;;;;11.53;1.93;;;;;;;-145.18;100.00;46648.69;5033733;28;20167;-80
2023/12/23 01:50:38;;;;;;;16.00;2.23;;;;;;;-145.18;100.00;46652.59;5043658;28;20399;-81
2023/12/23 01:53:04;;;;;;;16.97;2.63;;;;;;;-145.18;100.00;46644.78;5046715;28;20300;-80
2023/12/23 01:55:31;;;;;;;17.33;1.90;;;;;;;-145.18;100.00;46646.72;5043084;28;20052;-83
2023/12/23 01:57:57;;;;;;;19.97;2.33;;;;;;;-145.18;100.00;46644.78;5033592;28;20053;-80
2023/12/23 02:00:22;;;;;;;15.43;2.30;;;;;;;-145.18;100.00;46648.69;5044273;28;20297;-80
2023/12/23 02:02:48;;;;;;;20.93;2.53;;;;;;;-145.18;100.00;46644.78;5055320;28;20062;-80
2023/12/23 02:05:15;;;;;;;15.50;2.03;;;;;;;-145.18;100.00;46646.72;5055642;28;20894;-80
2023/12/23 02:07:44;;;;;;;12.80;1.70;;;;;;;-145.18;100.00;46646.72;5055175;28;20033;-80
2023/12/23 02:10:10;;;;;;;14.97;1.70;;;;;;;-145.18;100.00;46644.78;5055071;28;20278;-80
2023/12/23 02:12:55;;;;;;;15.40;2.27;;;;;;;-145.18;100.00;46648.69;5055123;28;20357;-80
2023/12/23 02:15:23;;;;;;;16.33;3.07;;;;;;;-145.18;100.00;46646.72;5053913;28;20046;-83
2023/12/23 02:17:57;;;;;;;14.87;1.93;;;;;;;-145.18;100.00;46644.78;5041402;28;20026;-83
2023/12/23 02:20:23;;;;;;;14.87;2.00;;;;;;;-145.18;100.00;46650.63;5051092;28;20277;-84
2023/12/23 02:22:48;;;;;;;19.93;1.90;;;;;;;-145.18;100.00;46652.59;5055661;28;20378;-84
2023/12/23 02:25:14;;;;;;;16.90;2.53;;;;;;;-145.18;100.00;46652.59;5053138;28;20051;-84
2023/12/23 02:27:46;;;;;;;7.73;1.43;;;;;;;-145.18;100.00;46652.59;5054658;28;20115;-84
2023/12/23 02:30:13;;;;;;;12.53;1.80;;;;;;;-145.18;100.00;46644.78;5054777;28;20041;-83
2023/12/23 02:32:40;;;;;;;11.90;2.20;;;;;;;-145.18;100.00;46652.59;5036711;28;20274;-84
2023/12/23 02:35:06;;;;;;;13.50;1.70;;;;;;;-145.18;100.00;46650.63;5044036;28;20336;-84
2023/12/23 02:37:32;;;;;;;14.73;1.60;;;;;;;-145.18;100.00;46650.63;5053114;28;20766;-84
2023/12/23 02:39:57;;;;;;;12.23;2.10;;;;;;;-145.18;100.00;46644.78;5048928;28;20029;-84
2023/12/23 02:42:22;;;;;;;10.47;1.77;;;;;;;-145.18;100.00;46646.72;5048092;28;20057;-84
2023/12/23 02:44:48;;;;;;;14.00;2.33;;;;;;;-145.18;100.00;46644.78;5048688;28;20041;-84
2023/12/23 02:47:13;;;;;;;11.70;1.60;;;;;;;-145.18;100.00;46642.81;5048602;28;20124;-84
2023/12/23 02:49:38;;;;;;;13.53;1.67;;;;;;;-145.18;100.00;46648.69;5048748;28;20061;-85
2023/12/23 02:52:04;;;;;;;17.33;1.60;;;;;;;-145.18;100.00;46646.72;5054783;28;20025;-85
2023/12/23 02:54:29;;;;;;;15.30;2.50;;;;;;;-145.18;100.00;46644.78;5054930;28;20116;-86
2023/12/23 02:56:55;;;;;;;15.33;1.80;;;;;;;-145.18;100.00;46648.69;5054253;28;20029;-85
2023/12/23 02:59:20;;;;;;;13.17;2.17;;;;;;;-145.18;100.00;46650.63;5054343;28;20025;-84
2023/12/23 03:01:45;;;;;;;22.33;2.53;;;;;;;-145.18;100.00;46654.53;5053573;28;20035;-85
2023/12/23 03:04:11;;;;;;;11.37;1.77;;;;;;;-145.18;100.00;46656.50;5054345;28;20113;-85
2023/12/23 03:06:36;;;;;;;14.57;1.73;;;;;;;-145.18;100.00;46652.59;5053801;28;20037;-85
2023/12/23 03:09:02;;;;;;;9.57;1.43;;;;;;;-145.18;100.00;46652.59;5053299;28;20112;-85
2023/12/23 03:11:27;;;;;;;8.93;2.03;;;;;;;-145.18;100.00;46660.41;5052953;28;20451;-85
2023/12/23 03:13:53;;;;;;;12.37;1.60;;;;;;;-145.18;100.00;46662.34;5054081;28;20025;-85
2023/12/23 03:16:19;;;;;;;8.07;1.73;;;;;;;-145.18;100.00;46666.25;5051226;28;20037;-85
2023/12/23 03:18:45;;;;;;;11.57;1.80;;;;;;;-145.18;100.00;46662.34;5050189;28;20537;-85
2023/12/23 03:21:11;;;;;;;11.10;1.40;;;;;;;-145.18;100.00;46662.34;5053731;28;20029;-85
2023/12/23 03:23:36;;;;;;;11.43;1.83;;;;;;;-145.18;100.00;46668.22;5051540;28;20265;-85
2023/12/23 03:26:02;;;;;;;17.93;2.07;;;;;;;-145.18;100.00;46666.25;5049177;28;20481;-80
2023/12/23 03:28:27;;;;;;;9.93;1.63;;;;;;;-145.18;100.00;46677.97;5045331;28;20025;-79
2023/12/23 03:30:53;;;;;;;9.00;1.53;;;;;;;-145.18;100.00;46676.03;5040305;28;20112;-78
2023/12/23 03:33:18;;;;;;;12.00;1.33;;;;;;;-145.18;100.00;46681.88;5048423;28;20069;-79
2023/12/23 03:35:43;;;;;;;6.40;1.53;;;;;;;-145.18;100.00;46677.97;5052005;28;20469;-78
2023/12/23 03:38:09;;;;;;;5.30;1.53;;;;;;;-145.18;100.00;46677.97;5053539;28;20401;-80
2023/12/23 03:40:34;;;;;;;12.67;1.60;;;;;;;-145.18;100.00;46672.13;5053839;28;20095;-80
2023/12/23 03:42:59;;;;;;;12.23;2.13;;;;;;;-145.18;100.00;46693.59;5052080;28;20547;-80
2023/12/23 03:45:25;;;;;;;5.30;1.27;;;;;;;-145.18;100.00;46676.03;5052181;28;20112;-81
2023/12/23 03:47:51;;;;;;;11.43;1.27;;;;;;;-145.18;100.00;46695.56;5050970;28;20067;-80
2023/12/23 03:50:16;;;;;;;6.87;1.40;;;;;;;-145.18;100.00;46695.56;5053610;28;20033;-80
2023/12/23 03:52:42;;;;;;;8.90;1.43;;;;;;;-145.18;100.00;46679.94;5040120;28;20041;-80
2023/12/23 03:55:10;;;;;;;13.70;1.97;;;;;;;-145.18;100.00;46693.59;5050272;28;20055;-80
2023/12/23 03:57:35;;;;;;;26.50;2.93;;;;;;;-145.18;100.00;46693.59;5038616;28;20041;-80
2023/12/23 04:00:00;;;;;;;6.20;1.27;;;;;;;-145.18;100.00;46687.75;5050646;28;20032;-80
2023/12/23 04:02:26;;;;;;;9.87;1.53;;;;;;;-145.18;100.00;46681.88;5037458;28;20539;-80
2023/12/23 04:04:51;;;;;;;13.33;2.30;;;;;;;-145.18;100.00;46691.66;5046983;28;20068;-80
2023/12/23 04:07:16;;;;;;;18.37;3.13;;;;;;;-145.18;100.00;46685.78;5046912;28;20108;-80
2023/12/23 04:09:42;;;;;;;12.27;1.37;;;;;;;-145.18;100.00;46681.88;5050066;28;20068;-80
2023/12/23 04:12:10;;;;;;;11.30;1.57;;;;;;;-145.18;100.00;46697.50;5065260;28;20077;-80
2023/12/23 04:14:37;;;;;;;12.60;1.70;;;;;;;-145.18;100.00;46685.78;5045094;28;20021;-80
2023/12/23 04:17:03;;;;;;;16.20;2.30;;;;;;;-145.18;100.00;46691.66;5052338;28;20258;-80
2023/12/23 04:19:28;;;;;;;9.33;1.90;;;;;;;-145.18;100.00;46687.75;5050069;28;20065;-80
2023/12/23 04:21:54;;;;;;;11.27;1.37;;;;;;;-145.18;100.00;46695.56;5044201;28;20412;-80
2023/12/23 04:24:20;;;;;;;8.93;1.90;;;;;;;-145.18;100.00;46674.06;5049881;28;20508;-80
2023/12/23 04:26:45;;;;;;;17.27;2.20;;;;;;;-145.18;100.00;46683.84;5048341;28;20029;-80
2023/12/23 04:29:11;;;;;;;7.67;1.73;;;;;;;-145.18;100.00;46683.84;5047329;28;20039;-80
2023/12/23 04:31:36;;;;;;;12.97;2.20;;;;;;;-145.18;100.00;46691.66;5046892;28;20025;-80
2023/12/23 04:34:02;;;;;;;14.57;1.90;;;;;;;-145.18;100.00;46681.88;5047935;28;20036;-80
2023/12/23 04:36:28;;;;;;;10.97;1.90;;;;;;;-145.18;100.00;46695.56;5047970;28;20022;-81
2023/12/23 04:38:53;;;;;;;12.37;2.00;;;;;;;-145.18;100.00;46687.75;5045748;28;20029;-81
2023/12/23 04:41:18;;;;;;;15.50;2.90;;;;;;;-145.18;100.00;46681.88;5044698;28;20067;-81
2023/12/23 04:43:44;;;;;;;14.33;1.70;;;;;;;-145.18;100.00;46677.97;5042723;28;20074;-81
2023/12/23 04:46:09;;;;;;;20.40;1.80;;;;;;;-145.18;100.00;46693.59;5051079;28;20025;-85
2023/12/23 04:48:34;;;;;;;15.83;1.97;;;;;;;-145.18;100.00;46695.56;5048350;28;20033;-85
2023/12/23 04:51:00;;;;;;;12.27;1.93;;;;;;;-145.18;100.00;46683.84;5049963;28;20178;-85
2023/12/23 04:53:25;;;;;;;9.57;2.10;;;;;;;-145.18;100.00;46677.97;5046432;28;20575;-86
2023/12/23 04:55:51;;;;;;;7.43;1.43;;;;;;;-145.18;100.00;46685.78;5049895;28;20044;-86
2023/12/23 04:58:16;;;;;;;11.13;1.37;;;;;;;-145.18;100.00;46687.75;5043732;28;20024;-86
2023/12/23 05:00:42;;;;;;;12.50;1.67;;;;;;;-145.18;100.00;46693.59;5033250;28;20045;-86
2023/12/23 05:03:07;;;;;;;8.77;1.97;;;;;;;-145.18;100.00;46689.69;5043173;28;20090;-85
2023/12/23 05:05:33;;;;;;;12.23;1.97;;;;;;;-145.18;100.00;46697.50;5044012;28;20417;-86
2023/12/23 05:07:58;;;;;;;13.80;2.10;;;;;;;-145.18;100.00;46689.69;5044794;28;20029;-86
2023/12/23 05:10:23;;;;;;;9.20;1.60;;;;;;;-145.18;100.00;46676.03;5048529;28;20037;-86
2023/12/23 05:12:49;;;;;;;20.93;2.00;;;;;;;-145.18;100.00;46699.47;5050847;28;20033;-86
2023/12/23 05:15:14;;;;;;;8.80;1.43;;;;;;;-145.18;100.00;46691.66;5051841;28;20544;-87
2023/12/23 05:17:39;;;;;;;9.43;1.93;;;;;;;-145.18;100.00;46689.69;5050229;28;20507;-86
2023/12/23 05:20:07;;;;;;;14.47;1.50;;;;;;;-145.18;100.00;46685.78;5061464;28;20021;-87
2023/12/23 05:22:33;;;;;;;10.47;1.60;;;;;;;-145.18;100.00;46685.78;5041478;28;20393;-87
2023/12/23 05:24:58;;;;;;;11.87;1.90;;;;;;;-145.18;100.00;46681.88;5048993;28;20029;-88
2023/12/23 05:27:24;;;;;;;11.60;1.57;;;;;;;-145.18;100.00;46691.66;5051137;28;20060;-87
2023/12/23 05:29:49;;;;;;;15.53;2.00;;;;;;;-145.18;100.00;46681.88;5050090;28;20067;-87
2023/12/23 05:32:15;;;;;;;10.33;1.73;;;;;;;-145.18;100.00;46689.69;5050256;28;20025;-87
2023/12/23 05:34:40;;;;;;;11.27;2.13;;;;;;;-145.18;100.00;46685.78;5060166;28;20111;-87
2023/12/23 05:37:06;;;;;;;11.40;1.67;;;;;;;-145.18;100.00;46699.47;5059933;28;20047;-86
2023/12/23 05:39:31;;;;;;;13.77;1.80;;;;;;;-145.18;100.00;46689.69;5059476;28;20087;-87
2023/12/23 05:41:57;;;;;;;14.07;2.20;;;;;;;-145.18;100.00;46679.94;5058682;28;20029;-86
2023/12/23 05:44:23;;;;;;;8.57;1.53;;;;;;;-145.18;100.00;46687.75;5058301;28;20572;-88
2023/12/23 05:46:48;;;;;;;14.37;1.83;;;;;;;-145.18;100.00;46689.69;5060389;28;20277;-87
2023/12/23 05:49:14;;;;;;;14.37;2.83;;;;;;;-145.18;100.00;46699.47;5075972;28;20474;-87
2023/12/23 05:51:39;;;;;;;9.07;2.00;;;;;;;-145.18;100.00;46689.69;5058254;28;20025;-87
2023/12/23 05:54:04;;;;;;;15.73;2.37;;;;;;;-145.18;100.00;46695.56;5059622;28;20029;-87
2023/12/23 05:56:30;;;;;;;13.03;2.20;;;;;;;-145.18;100.00;46699.47;5058598;28;20029;-79
2023/12/23 05:58:56;;;;;;;17.97;2.03;;;;;;;-145.18;100.00;46683.84;5055890;28;20032;-80
2023/12/23 06:01:22;;;;;;;15.27;2.97;;;;;;;-145.18;100.00;46701.41;5056288;28;20044;-80
2023/12/23 06:03:47;;;;;;;16.67;2.33;;;;;;;-145.18;100.00;46699.47;5056733;28;20053;-79
2023/12/23 06:06:12;;;;;;;17.07;2.27;;;;;;;-145.18;100.00;46691.66;5054063;28;20033;-80
2023/12/23 06:08:38;;;;;;;16.00;1.87;;;;;;;-145.18;100.00;46697.50;5057982;28;20029;-79
2023/12/23 06:11:03;;;;;;;13.07;2.47;;;;;;;-145.18;100.00;46695.56;5054346;28;20029;-79
2023/12/23 06:13:29;;;;;;;10.03;1.67;;;;;;;-145.18;100.00;46695.56;5056280;28;20021;-80
2023/12/23 06:15:54;;;;;;;19.17;2.00;;;;;;;-145.18;100.00;46681.88;5056465;28;20025;-79
2023/12/23 06:18:20;;;;;;;19.90;3.30;;;;;;;-145.18;100.00;46687.75;5056306;28;20116;-80
2023/12/23 06:20:45;;;;;;;10.03;1.70;;;;;;;-145.18;100.00;46689.69;5057617;28;20139;-79
2023/12/23 06:23:12;;;;;;;11.97;2.20;;;;;;;-145.18;100.00;46681.88;5056014;28;20448;-80
2023/12/23 06:25:38;;;;;;;16.07;2.73;;;;;;;-145.18;100.00;46681.88;5044732;28;20045;-81
2023/12/23 06:28:04;;;;;;;13.80;2.23;;;;;;;-145.18;100.00;46679.94;5053419;28;20123;-79
2023/12/23 06:30:29;;;;;;;15.63;3.23;;;;;;;-145.18;100.00;46685.78;5054703;28;20078;-79
2023/12/23 06:32:54;;;;;;;16.03;2.53;;;;;;;-145.18;100.00;46695.56;5045762;28;20033;-79
2023/12/23 06:35:20;;;;;;;13.53;2.63;;;;;;;-145.18;100.00;46699.47;5055619;28;20033;-80
2023/12/23 06:37:45;;;;;;;9.47;1.53;;;;;;;-145.18;100.00;46691.66;5054300;28;20041;-80
2023/12/23 06:40:11;;;;;;;11.07;2.33;;;;;;;-145.18;100.00;46695.56;5041300;28;20482;-80
2023/12/23 06:42:37;;;;;;;22.40;3.27;;;;;;;-145.18;100.00;46685.78;5069087;28;20029;-80
2023/12/23 06:45:03;;;;;;;13.83;2.37;;;;;;;-145.18;100.00;46699.47;5046052;28;20389;-80
2023/12/23 06:47:28;;;;;;;15.33;2.10;;;;;;;-145.18;100.00;46691.66;5047969;28;20025;-80
2023/12/23 06:49:53;;;;;;;13.20;2.00;;;;;;;-145.18;100.00;46685.78;5055913;28;20026;-80
2023/12/23 06:52:19;;;;;;;11.10;1.73;;;;;;;-145.18;100.00;46681.88;5048507;28;20060;-80
2023/12/23 06:54:44;;;;;;;18.37;2.17;;;;;;;-145.18;100.00;46687.75;5053648;28;20033;-79
2023/12/23 06:57:09;;;;;;;16.77;1.80;;;;;;;-145.18;100.00;46697.50;5048421;28;20116;-79
2023/12/23 06:59:35;;;;;;;14.80;2.63;;;;;;;-145.18;100.00;46683.84;5050676;28;20063;-80
2023/12/23 07:02:00;;;;;;;21.30;2.47;;;;;;;-145.18;100.00;46681.88;5048284;28;20032;-80
2023/12/23 07:04:26;;;;;;;8.73;1.60;;;;;;;-145.18;100.00;46687.75;5032875;28;20174;-80
2023/12/23 07:06:51;;;;;;;18.30;2.47;;;;;;;-145.18;100.00;46695.56;5047528;28;20405;-79
2023/12/23 07:09:17;;;;;;;13.63;2.70;;;;;;;-145.18;100.00;46679.94;5042913;28;20029;-79
2023/12/23 07:11:43;;;;;;;13.73;1.77;;;;;;;-145.18;100.00;46691.66;5050070;28;20025;-82
2023/12/23 07:14:08;;;;;;;9.63;1.63;;;;;;;-145.18;100.00;46691.66;5050167;28;20033;-82
2023/12/23 07:16:33;;;;;;;18.87;2.43;;;;;;;-145.18;100.00;46699.47;5050685;28;20148;-83
2023/12/23 07:18:59;;;;;;;12.37;1.83;;;;;;;-145.18;100.00;46699.47;5047069;28;20101;-83
2023/12/23 07:21:24;;;;;;;12.30;1.77;;;;;;;-145.18;100.00;46699.47;5040755;28;20032;-83
2023/12/23 07:23:49;;;;;;;15.53;1.93;;;;;;;-145.18;100.00;46701.41;5048824;28;20033;-82
2023/12/23 07:26:15;;;;;;;12.27;2.20;;;;;;;-145.18;100.00;46693.59;5041292;28;20432;-82
2023/12/23 07:28:40;;;;;;;13.23;2.70;;;;;;;-145.18;100.00;46699.47;5046352;28;20033;-82
2023/12/23 07:31:06;;;;;;;9.37;1.80;;;;;;;-145.18;100.00;46697.50;5040418;28;20044;-82
2023/12/23 07:33:32;;;;;;;12.53;3.43;;;;;;;-145.18;100.00;46699.47;5043095;28;20033;-84
2023/12/23 07:35:57;;;;;;;22.47;2.63;;;;;;;-145.18;100.00;46697.50;5046799;28;20029;-81
2023/12/23 07:38:23;;;;;;;17.17;2.53;;;;;;;-145.18;100.00;46707.28;5049665;28;20041;-82
2023/12/23 07:40:48;;;;;;;14.10;1.87;;;;;;;-145.18;100.00;46699.47;5043812;28;20036;-80
2023/12/23 07:43:14;;;;;;;16.67;2.03;;;;;;;-145.18;100.00;46695.56;5043630;28;20047;-82
2023/12/23 07:45:39;;;;;;;23.13;1.87;;;;;;;-145.18;100.00;46693.59;5052194;28;20033;-84
2023/12/23 07:48:05;;;;;;;8.33;2.10;;;;;;;-145.18;100.00;46695.56;5049595;28;20044;-83
2023/12/23 07:50:30;;;;;;;12.70;1.73;;;;;;;-145.18;100.00;46703.38;5042980;28;20439;-83
2023/12/23 07:52:56;;;;;;;10.17;1.93;;;;;;;-145.18;100.00;46709.22;5045391;28;20033;-83
2023/12/23 07:55:21;;;;;;;21.27;2.90;;;;;;;-145.18;100.00;46705.31;5045857;28;20048;-83
2023/12/23 07:57:46;;;;;;;13.70;1.83;;;;;;;-145.18;100.00;46701.41;5044634;28;20531;-83
2023/12/23 08:00:13;;;;;;;13.37;2.80;;;;;;;-145.18;100.00;46705.31;5042811;28;20041;-83
2023/12/23 08:02:39;;;;;;;15.20;1.97;;;;;;;-145.18;100.00;46703.38;5041141;28;20119;-83
2023/12/23 08:05:05;;;;;;;18.50;2.57;;;;;;;-145.18;100.00;46703.38;5043724;28;20049;-83
2023/12/23 08:07:30;;;;;;;9.80;2.07;;;;;;;-145.18;100.00;46703.38;5045485;28;20071;-83
2023/12/23 08:09:56;;;;;;;10.17;1.77;;;;;;;-145.18;100.00;46703.38;5043956;28;20057;-83
2023/12/23 08:12:21;;;;;;;18.40;3.77;;;;;;;-145.18;100.00;46707.28;5042373;28;20063;-83
2023/12/23 08:14:46;;;;;;;8.80;1.47;;;;;;;-145.18;100.00;46703.38;5043600;28;20478;-83
2023/12/23 08:17:12;;;;;;;6.97;1.80;;;;;;;-145.18;100.00;46701.41;5047760;28;20061;-89
2023/12/23 08:19:38;;;;;;;12.77;1.80;;;;;;;-145.18;100.00;46699.47;5047208;28;20029;-91
2023/12/23 08:22:03;;;;;;;10.57;2.40;;;;;;;-145.18;100.00;46705.31;5044427;28;20029;-90
2023/12/23 08:24:29;;;;;;;7.03;1.57;;;;;;;-145.18;100.00;46703.38;5048561;28;20029;-91
2023/12/23 08:26:54;;;;;;;9.47;2.17;;;;;;;-145.18;100.00;46699.47;5047040;28;20730;-89
2023/12/23 08:29:20;;;;;;;6.40;1.17;;;;;;;-145.18;100.00;46691.66;5048330;28;20020;-88
2023/12/23 08:31:46;;;;;;;10.30;1.53;;;;;;;-145.18;100.00;46703.38;5044168;28;20051;-89
2023/12/23 08:34:12;;;;;;;7.90;1.40;;;;;;;-145.18;100.00;46707.28;5050191;28;20059;-89
2023/12/23 08:36:37;;;;;;;8.97;1.20;;;;;;;-145.18;100.00;46705.31;5051648;28;20098;-87
2023/12/23 08:39:03;;;;;;;5.30;1.03;;;;;;;-145.18;100.00;46705.31;5047791;28;20461;-88
2023/12/23 08:41:28;;;;;;;8.23;1.20;;;;;;;-145.18;100.00;46703.38;5051559;28;20039;-89
2023/12/23 08:43:53;;;;;;;9.87;1.80;;;;;;;-145.18;100.00;46695.56;5070794;28;20487;-88
2023/12/23 08:46:19;;;;;;;6.80;1.37;;;;;;;-145.18;100.00;46699.47;5035908;28;20041;-88
2023/12/23 08:48:44;;;;;;;11.90;1.53;;;;;;;-145.18;100.00;46689.69;5035184;28;20500;-90
2023/12/23 08:51:10;;;;;;;12.60;2.53;;;;;;;-145.18;100.00;46687.75;5032909;28;20028;-89
2023/12/23 08:53:36;;;;;;;18.90;2.07;;;;;;;-145.18;100.00;46685.78;5045683;28;20112;-89
2023/12/23 08:56:01;;;;;;;9.10;1.20;;;;;;;-145.18;100.00;46685.78;5046689;28;20035;-89
2023/12/23 08:58:26;;;;;;;5.87;1.47;;;;;;;-145.18;100.00;46681.88;5048662;28;20048;-87
2023/12/23 09:00:52;;;;;;;13.30;2.10;;;;;;;-145.18;100.00;46693.59;5050893;28;20955;-90
2023/12/23 09:03:17;;;;;;;5.70;1.27;;;;;;;-145.18;100.00;46697.50;5050156;28;20072;-88
2023/12/23 09:05:43;;;;;;;6.23;1.53;;;;;;;-145.18;100.00;46689.69;5041720;28;20379;-92
2023/12/23 09:08:09;;;;;;;6.20;1.83;;;;;;;-145.18;100.00;46677.97;5030449;28;20033;-88
2023/12/23 09:10:35;;;;;;;18.30;1.93;;;;;;;-145.18;100.00;46691.66;5053653;28;20029;-89
2023/12/23 09:13:00;;;;;;;11.83;1.67;;;;;;;-145.18;100.00;46683.84;5040499;28;20045;-88
2023/12/23 09:15:25;;;;;;;11.17;1.60;;;;;;;-145.18;100.00;46691.66;5058272;28;20119;-90
2023/12/23 09:17:51;;;;;;;13.60;2.00;;;;;;;-145.18;100.00;46695.56;5043196;28;20049;-90
2023/12/23 09:20:17;;;;;;;8.93;1.70;;;;;;;-145.18;100.00;46693.59;5032429;28;20370;-89
2023/12/23 09:22:42;;;;;;;8.90;1.57;;;;;;;-145.18;100.00;46695.56;5063706;28;20374;-88
2023/12/23 09:25:08;;;;;;;16.73;2.77;;;;;;;-145.18;100.00;46701.41;5044739;28;20029;-92
2023/12/23 09:27:33;;;;;;;8.13;1.87;;;;;;;-145.18;100.00;46699.47;5049889;28;20029;-79
2023/12/23 09:29:59;;;;;;;14.37;2.50;;;;;;;-145.18;100.00;46695.56;5049622;28;20025;-78
2023/12/23 09:32:25;;;;;;;11.33;2.03;;;;;;;-145.18;100.00;46701.41;5044101;28;20183;-78
2023/12/23 09:34:53;;;;;;;10.77;1.73;;;;;;;-145.18;100.00;46687.75;5047497;28;20116;-78
2023/12/23 09:37:19;;;;;;;5.43;1.40;;;;;;;-145.18;100.00;46701.41;5045798;28;20033;-78
2023/12/23 09:39:44;;;;;;;9.67;1.30;;;;;;;-145.18;100.00;46697.50;5047648;28;20036;-78
2023/12/23 09:42:10;;;;;;;10.33;1.43;;;;;;;-145.18;100.00;46701.41;5043339;28;20030;-78
2023/12/23 09:44:36;;;;;;;9.37;1.27;;;;;;;-145.18;100.00;46701.41;5050010;28;20476;-78
2023/12/23 09:47:02;;;;;;;18.27;1.97;;;;;;;-145.18;100.00;46695.56;5046093;28;20033;-78
2023/12/23 09:49:28;;;;;;;12.60;2.00;;;;;;;-145.18;100.00;46701.41;5047489;28;20041;-79
2023/12/23 09:51:55;;;;;;;14.43;3.67;;;;;;;-145.18;100.00;46693.59;5047502;28;20037;-76
2023/12/23 09:54:23;;;;;;;22.53;2.00;;;;;;;-145.18;100.00;46701.41;5044598;28;20029;-76
2023/12/23 09:56:50;;;;;;;13.47;1.77;;;;;;;-145.18;100.00;46703.38;5039874;28;20029;-77
2023/12/23 09:59:16;;;;;;;17.53;1.80;;;;;;;-145.18;100.00;46701.41;5046347;28;20025;-76
2023/12/23 10:01:41;;;;;;;10.03;1.83;;;;;;;-145.18;100.00;46699.47;5045427;28;20030;-76
2023/12/23 10:04:07;;;;;;;14.40;2.93;;;;;;;-145.18;100.00;46699.47;5059661;28;20080;-77
2023/12/23 10:06:32;;;;;;;7.60;1.33;;;;;;;-145.18;100.00;46695.56;5047508;28;20030;-78
2023/12/23 10:08:57;;;;;;;11.53;2.57;;;;;;;-145.18;100.00;46699.47;5062736;28;20424;-78
2023/12/23 10:11:24;;;;;;;12.20;1.73;;;;;;;-145.18;100.00;46699.47;5047332;28;20033;-79
2023/12/23 10:13:50;;;;;;;13.87;1.57;;;;;;;-145.18;100.00;46697.50;5058565;28;20025;-78
2023/12/23 10:16:16;;;;;;;11.57;1.70;;;;;;;-145.18;100.00;46693.59;5033342;28;20393;-78
2023/12/23 10:18:42;;;;;;;18.63;2.70;;;;;;;-145.18;100.00;46695.56;5049496;28;20075;-78
2023/12/23 10:21:08;;;;;;;8.23;1.67;;;;;;;-145.18;100.00;46697.50;5053679;28;20385;-77
2023/12/23 10:23:33;;;;;;;8.27;1.60;;;;;;;-145.18;100.00;46695.56;5044183;28;20044;-78
2023/12/23 10:25:59;;;;;;;11.23;2.17;;;;;;;-145.18;100.00;46695.56;5046368;28;20021;-77
2023/12/23 10:28:25;;;;;;;12.43;2.13;;;;;;;-145.18;100.00;46699.47;5054520;28;20052;-78
2023/12/23 10:30:56;;;;;;;9.70;1.77;;;;;;;-145.18;100.00;46693.59;5050742;28;20082;-78
2023/12/23 10:33:23;;;;;;;12.80;1.47;;;;;;;-145.18;100.00;46697.50;5043227;28;20401;-76
2023/12/23 10:35:50;;;;;;;8.17;1.60;;;;;;;-145.18;100.00;46693.59;5041128;28;20121;-83
2023/12/23 10:38:17;;;;;;;8.93;1.83;;;;;;;-145.18;100.00;46699.47;5035921;28;20056;-78
2023/12/23 10:40:55;;;;;;;13.63;2.03;;;;;;;-145.18;100.00;46697.50;5048152;28;20025;-77
2023/12/23 10:43:21;;;;;;;10.83;1.80;;;;;;;-145.18;100.00;46695.56;5053402;28;20029;-78
2023/12/23 10:45:48;;;;;;;12.63;1.47;;;;;;;-145.18;100.00;46699.47;5045691;28;20728;-78
2023/12/23 10:48:15;;;;;;;6.83;1.00;;;;;;;-145.18;100.00;46695.56;5049838;28;20024;-79
2023/12/23 10:50:42;;;;;;;6.27;1.73;;;;;;;-145.18;100.00;46697.50;5052395;28;20099;-79
2023/12/23 10:53:12;;;;;;;12.33;1.83;;;;;;;-145.18;100.00;46699.47;5054817;28;20025;-79
2023/12/23 10:55:39;;;;;;;13.30;1.70;;;;;;;-145.18;100.00;46695.56;5052615;28;20075;-79
2023/12/23 10:58:09;;;;;;;12.37;1.47;;;;;;;-145.18;100.00;46697.50;5053295;28;20039;-79